sensor_id;sensor_type;location;lat;lon;timestamp;P1;durP1;ratioP1;P2;durP2;ratioP2
72949;SDS011;64868;45.710;9.590;2023-01-13T00:02:18;9.75;;;4.68;;
72949;SDS011;64868;45.710;9.590;2023-01-13T00:04:45;9.85;;;4.10;;
72949;SDS011;64868;45.710;9.590;2023-01-13T00:07:10;9.50;;;3.78;;
72949;SDS011;64868;45.710;9.590;2023-01-13T00:09:36;9.15;;;3.63;;
72949;SDS011;64868;45.710;9.590;2023-01-13T00:12:04;8.65;;;3.70;;
72949;SDS011;64868;45.710;9.590;2023-01-13T00:14:33;8.05;;;3.72;;
72949;SDS011;64868;45.710;9.590;2023-01-13T00:16:59;7.65;;;3.35;;
72949;SDS011;64868;45.710;9.590;2023-01-13T00:19:25;8.02;;;3.40;;
72949;SDS011;64868;45.710;9.590;2023-01-13T00:21:51;9.73;;;3.67;;
72949;SDS011;64868;45.710;9.590;2023-01-13T00:24:16;8.25;;;3.45;;
72949;SDS011;64868;45.710;9.590;2023-01-13T00:26:42;8.20;;;3.72;;
72949;SDS011;64868;45.710;9.590;2023-01-13T00:29:07;7.47;;;3.67;;
72949;SDS011;64868;45.710;9.590;2023-01-13T00:31:33;8.88;;;4.13;;
72949;SDS011;64868;45.710;9.590;2023-01-13T00:33:58;9.55;;;4.25;;
72949;SDS011;64868;45.710;9.590;2023-01-13T00:36:25;9.90;;;4.72;;
72949;SDS011;64868;45.710;9.590;2023-01-13T00:38:51;8.15;;;3.53;;
72949;SDS011;64868;45.710;9.590;2023-01-13T00:41:18;9.63;;;4.10;;
72949;SDS011;64868;45.710;9.590;2023-01-13T00:43:46;8.25;;;3.67;;
72949;SDS011;64868;45.710;9.590;2023-01-13T00:46:14;7.88;;;3.35;;
72949;SDS011;64868;45.710;9.590;2023-01-13T00:48:41;8.45;;;3.47;;
72949;SDS011;64868;45.710;9.590;2023-01-13T00:51:07;10.15;;;4.60;;
72949;SDS011;64868;45.710;9.590;2023-01-13T00:53:37;12.50;;;4.93;;
72949;SDS011;64868;45.710;9.590;2023-01-13T00:56:05;10.80;;;4.80;;
72949;SDS011;64868;45.710;9.590;2023-01-13T00:58:38;10.35;;;4.50;;
72949;SDS011;64868;45.710;9.590;2023-01-13T01:01:05;10.07;;;4.35;;
72949;SDS011;64868;45.710;9.590;2023-01-13T01:03:33;10.40;;;4.03;;
72949;SDS011;64868;45.710;9.590;2023-01-13T01:06:03;9.23;;;4.47;;
72949;SDS011;64868;45.710;9.590;2023-01-13T01:08:31;11.55;;;4.20;;
72949;SDS011;64868;45.710;9.590;2023-01-13T01:11:01;9.45;;;4.18;;
72949;SDS011;64868;45.710;9.590;2023-01-13T01:13:32;9.25;;;3.75;;
72949;SDS011;64868;45.710;9.590;2023-01-13T01:15:58;8.68;;;3.78;;
72949;SDS011;64868;45.710;9.590;2023-01-13T01:18:24;8.20;;;3.60;;
72949;SDS011;64868;45.710;9.590;2023-01-13T01:20:50;8.20;;;3.50;;
72949;SDS011;64868;45.710;9.590;2023-01-13T01:25:53;8.27;;;3.63;;
72949;SDS011;64868;45.710;9.590;2023-01-13T01:28:22;10.50;;;3.75;;
72949;SDS011;64868;45.710;9.590;2023-01-13T01:30:48;8.23;;;3.45;;
72949;SDS011;64868;45.710;9.590;2023-01-13T01:33:15;9.00;;;3.70;;
72949;SDS011;64868;45.710;9.590;2023-01-13T01:35:43;8.48;;;3.45;;
72949;SDS011;64868;45.710;9.590;2023-01-13T01:38:09;9.68;;;3.22;;
72949;SDS011;64868;45.710;9.590;2023-01-13T01:40:34;8.45;;;3.28;;
72949;SDS011;64868;45.710;9.590;2023-01-13T01:43:00;9.27;;;3.33;;
72949;SDS011;64868;45.710;9.590;2023-01-13T01:45:44;7.40;;;2.47;;
72949;SDS011;64868;45.710;9.590;2023-01-13T01:48:10;7.57;;;3.40;;
72949;SDS011;64868;45.710;9.590;2023-01-13T01:50:38;8.30;;;3.10;;
72949;SDS011;64868;45.710;9.590;2023-01-13T01:53:10;8.95;;;3.25;;
72949;SDS011;64868;45.710;9.590;2023-01-13T01:55:43;6.72;;;2.70;;
72949;SDS011;64868;45.710;9.590;2023-01-13T01:58:14;9.05;;;3.13;;
72949;SDS011;64868;45.710;9.590;2023-01-13T02:00:45;7.03;;;2.72;;
72949;SDS011;64868;45.710;9.590;2023-01-13T02:03:13;8.45;;;2.75;;
72949;SDS011;64868;45.710;9.590;2023-01-13T02:05:41;10.07;;;3.28;;
72949;SDS011;64868;45.710;9.590;2023-01-13T02:08:07;8.45;;;3.25;;
72949;SDS011;64868;45.710;9.590;2023-01-13T02:10:34;8.45;;;2.88;;
72949;SDS011;64868;45.710;9.590;2023-01-13T02:13:07;7.65;;;3.22;;
72949;SDS011;64868;45.710;9.590;2023-01-13T02:32:35;7.53;;;2.58;;
72949;SDS011;64868;45.710;9.590;2023-01-13T02:35:06;6.30;;;2.05;;
72949;SDS011;64868;45.710;9.590;2023-01-13T02:37:38;8.32;;;2.38;;
72949;SDS011;64868;45.710;9.590;2023-01-13T02:42:44;6.88;;;2.45;;
72949;SDS011;64868;45.710;9.590;2023-01-13T02:48:21;6.57;;;2.25;;
72949;SDS011;64868;45.710;9.590;2023-01-13T02:50:52;6.05;;;2.20;;
72949;SDS011;64868;45.710;9.590;2023-01-13T02:53:40;9.35;;;2.20;;
72949;SDS011;64868;45.710;9.590;2023-01-13T02:56:12;5.75;;;2.22;;
72949;SDS011;64868;45.710;9.590;2023-01-13T02:58:40;6.07;;;2.00;;
72949;SDS011;64868;45.710;9.590;2023-01-13T03:01:10;6.70;;;2.22;;
72949;SDS011;64868;45.710;9.590;2023-01-13T03:03:35;7.93;;;2.10;;
72949;SDS011;64868;45.710;9.590;2023-01-13T03:06:17;7.43;;;2.25;;
72949;SDS011;64868;45.710;9.590;2023-01-13T03:11:52;7.05;;;2.22;;
72949;SDS011;64868;45.710;9.590;2023-01-13T03:14:39;7.45;;;2.13;;
72949;SDS011;64868;45.710;9.590;2023-01-13T03:22:50;6.13;;;1.55;;
72949;SDS011;64868;45.710;9.590;2023-01-13T03:25:35;5.53;;;1.63;;
72949;SDS011;64868;45.710;9.590;2023-01-13T03:28:35;5.35;;;1.70;;
72949;SDS011;64868;45.710;9.590;2023-01-13T03:31:08;8.20;;;1.65;;
72949;SDS011;64868;45.710;9.590;2023-01-13T03:33:39;4.78;;;1.50;;
72949;SDS011;64868;45.710;9.590;2023-01-13T03:36:09;5.57;;;1.50;;
72949;SDS011;64868;45.710;9.590;2023-01-13T03:38:39;6.55;;;1.30;;
72949;SDS011;64868;45.710;9.590;2023-01-13T03:41:15;5.90;;;1.67;;
72949;SDS011;64868;45.710;9.590;2023-01-13T03:44:08;7.40;;;1.30;;
72949;SDS011;64868;45.710;9.590;2023-01-13T03:49:52;5.55;;;1.55;;
72949;SDS011;64868;45.710;9.590;2023-01-13T03:52:26;4.65;;;1.30;;
72949;SDS011;64868;45.710;9.590;2023-01-13T03:54:59;4.72;;;1.70;;
72949;SDS011;64868;45.710;9.590;2023-01-13T03:57:33;5.55;;;1.67;;
72949;SDS011;64868;45.710;9.590;2023-01-13T04:00:03;5.00;;;1.20;;
72949;SDS011;64868;45.710;9.590;2023-01-13T04:05:11;5.07;;;1.65;;
72949;SDS011;64868;45.710;9.590;2023-01-13T04:10:09;4.53;;;1.20;;
72949;SDS011;64868;45.710;9.590;2023-01-13T04:12:43;4.95;;;1.42;;
72949;SDS011;64868;45.710;9.590;2023-01-13T04:15:25;4.25;;;1.30;;
72949;SDS011;64868;45.710;9.590;2023-01-13T04:17:53;5.22;;;1.25;;
72949;SDS011;64868;45.710;9.590;2023-01-13T04:20:19;6.35;;;1.50;;
72949;SDS011;64868;45.710;9.590;2023-01-13T04:22:44;4.68;;;1.10;;
72949;SDS011;64868;45.710;9.590;2023-01-13T04:25:10;5.40;;;1.50;;
72949;SDS011;64868;45.710;9.590;2023-01-13T04:27:36;5.07;;;1.30;;
72949;SDS011;64868;45.710;9.590;2023-01-13T04:30:02;4.80;;;1.30;;
72949;SDS011;64868;45.710;9.590;2023-01-13T04:32:28;4.20;;;1.15;;
72949;SDS011;64868;45.710;9.590;2023-01-13T04:34:54;4.30;;;1.35;;
72949;SDS011;64868;45.710;9.590;2023-01-13T04:37:20;4.40;;;1.27;;
72949;SDS011;64868;45.710;9.590;2023-01-13T04:39:45;3.83;;;1.25;;
72949;SDS011;64868;45.710;9.590;2023-01-13T04:42:11;5.05;;;1.33;;
72949;SDS011;64868;45.710;9.590;2023-01-13T04:44:37;4.93;;;1.60;;
72949;SDS011;64868;45.710;9.590;2023-01-13T04:47:02;3.75;;;1.10;;
72949;SDS011;64868;45.710;9.590;2023-01-13T04:49:28;5.07;;;1.25;;
72949;SDS011;64868;45.710;9.590;2023-01-13T04:51:53;5.10;;;1.30;;
72949;SDS011;64868;45.710;9.590;2023-01-13T04:54:19;4.03;;;1.00;;
72949;SDS011;64868;45.710;9.590;2023-01-13T04:56:44;4.63;;;1.27;;
72949;SDS011;64868;45.710;9.590;2023-01-13T04:59:10;5.88;;;1.40;;
72949;SDS011;64868;45.710;9.590;2023-01-13T05:01:36;5.15;;;1.40;;
72949;SDS011;64868;45.710;9.590;2023-01-13T05:04:02;4.05;;;1.27;;
72949;SDS011;64868;45.710;9.590;2023-01-13T05:06:28;6.43;;;1.65;;
72949;SDS011;64868;45.710;9.590;2023-01-13T05:08:53;4.78;;;1.30;;
72949;SDS011;64868;45.710;9.590;2023-01-13T05:11:21;4.57;;;1.48;;
72949;SDS011;64868;45.710;9.590;2023-01-13T05:14:06;5.60;;;1.55;;
72949;SDS011;64868;45.710;9.590;2023-01-13T05:16:50;5.05;;;1.30;;
72949;SDS011;64868;45.710;9.590;2023-01-13T05:19:24;3.65;;;1.00;;
72949;SDS011;64868;45.710;9.590;2023-01-13T05:21:54;4.93;;;1.27;;
72949;SDS011;64868;45.710;9.590;2023-01-13T05:24:48;4.38;;;1.30;;
72949;SDS011;64868;45.710;9.590;2023-01-13T05:27:32;4.95;;;1.42;;
72949;SDS011;64868;45.710;9.590;2023-01-13T05:29:58;4.53;;;1.10;;
72949;SDS011;64868;45.710;9.590;2023-01-13T05:32:24;4.80;;;1.10;;
72949;SDS011;64868;45.710;9.590;2023-01-13T05:34:51;6.40;;;1.30;;
72949;SDS011;64868;45.710;9.590;2023-01-13T05:37:17;5.80;;;1.48;;
72949;SDS011;64868;45.710;9.590;2023-01-13T05:39:43;4.18;;;1.30;;
72949;SDS011;64868;45.710;9.590;2023-01-13T05:42:27;4.07;;;1.08;;
72949;SDS011;64868;45.710;9.590;2023-01-13T05:45:12;5.30;;;1.20;;
72949;SDS011;64868;45.710;9.590;2023-01-13T05:47:37;5.85;;;1.40;;
72949;SDS011;64868;45.710;9.590;2023-01-13T05:50:03;5.60;;;1.60;;
72949;SDS011;64868;45.710;9.590;2023-01-13T05:52:29;5.10;;;1.48;;
72949;SDS011;64868;45.710;9.590;2023-01-13T05:54:54;6.03;;;1.40;;
72949;SDS011;64868;45.710;9.590;2023-01-13T05:57:20;4.80;;;1.45;;
72949;SDS011;64868;45.710;9.590;2023-01-13T05:59:46;5.03;;;1.48;;
72949;SDS011;64868;45.710;9.590;2023-01-13T06:02:11;7.28;;;1.88;;
72949;SDS011;64868;45.710;9.590;2023-01-13T06:04:37;6.72;;;1.88;;
72949;SDS011;64868;45.710;9.590;2023-01-13T06:07:04;5.30;;;1.75;;
72949;SDS011;64868;45.710;9.590;2023-01-13T06:09:33;5.15;;;1.50;;
72949;SDS011;64868;45.710;9.590;2023-01-13T06:11:59;6.20;;;1.73;;
72949;SDS011;64868;45.710;9.590;2023-01-13T06:14:27;8.27;;;1.90;;
72949;SDS011;64868;45.710;9.590;2023-01-13T06:17:05;5.43;;;1.63;;
72949;SDS011;64868;45.710;9.590;2023-01-13T06:19:32;4.68;;;1.60;;
72949;SDS011;64868;45.710;9.590;2023-01-13T06:22:06;6.57;;;1.67;;
72949;SDS011;64868;45.710;9.590;2023-01-13T06:24:32;4.72;;;1.50;;
72949;SDS011;64868;45.710;9.590;2023-01-13T06:26:58;4.72;;;1.50;;
72949;SDS011;64868;45.710;9.590;2023-01-13T06:29:23;7.07;;;1.73;;
72949;SDS011;64868;45.710;9.590;2023-01-13T06:31:48;5.80;;;1.83;;
72949;SDS011;64868;45.710;9.590;2023-01-13T06:34:14;5.70;;;1.70;;
72949;SDS011;64868;45.710;9.590;2023-01-13T06:36:41;7.05;;;1.67;;
72949;SDS011;64868;45.710;9.590;2023-01-13T06:39:16;6.68;;;1.45;;
72949;SDS011;64868;45.710;9.590;2023-01-13T06:41:44;4.45;;;1.60;;
72949;SDS011;64868;45.710;9.590;2023-01-13T06:44:32;5.93;;;1.50;;
72949;SDS011;64868;45.710;9.590;2023-01-13T06:46:57;5.90;;;1.50;;
72949;SDS011;64868;45.710;9.590;2023-01-13T06:49:23;6.75;;;1.70;;
72949;SDS011;64868;45.710;9.590;2023-01-13T06:51:48;7.05;;;1.73;;
72949;SDS011;64868;45.710;9.590;2023-01-13T06:54:14;6.43;;;1.83;;
72949;SDS011;64868;45.710;9.590;2023-01-13T06:56:39;5.55;;;1.83;;
72949;SDS011;64868;45.710;9.590;2023-01-13T06:59:05;7.47;;;1.45;;
72949;SDS011;64868;45.710;9.590;2023-01-13T07:01:30;4.72;;;1.48;;
72949;SDS011;64868;45.710;9.590;2023-01-13T07:03:55;5.32;;;1.83;;
72949;SDS011;64868;45.710;9.590;2023-01-13T07:06:22;5.10;;;1.40;;
72949;SDS011;64868;45.710;9.590;2023-01-13T07:08:48;5.43;;;1.80;;
72949;SDS011;64868;45.710;9.590;2023-01-13T07:11:13;5.55;;;1.88;;
72949;SDS011;64868;45.710;9.590;2023-01-13T07:13:38;6.22;;;1.67;;
72949;SDS011;64868;45.710;9.590;2023-01-13T07:16:23;6.32;;;1.90;;
72949;SDS011;64868;45.710;9.590;2023-01-13T07:18:48;4.47;;;1.58;;
72949;SDS011;64868;45.710;9.590;2023-01-13T07:21:14;5.88;;;1.80;;
72949;SDS011;64868;45.710;9.590;2023-01-13T07:23:43;6.53;;;1.85;;
72949;SDS011;64868;45.710;9.590;2023-01-13T07:26:10;7.10;;;2.00;;
72949;SDS011;64868;45.710;9.590;2023-01-13T07:28:36;6.38;;;1.38;;
72949;SDS011;64868;45.710;9.590;2023-01-13T07:31:02;7.22;;;2.10;;
72949;SDS011;64868;45.710;9.590;2023-01-13T07:33:28;6.47;;;1.70;;
72949;SDS011;64868;45.710;9.590;2023-01-13T07:36:00;6.32;;;2.28;;
72949;SDS011;64868;45.710;9.590;2023-01-13T07:38:28;6.57;;;2.38;;
72949;SDS011;64868;45.710;9.590;2023-01-13T07:40:54;7.00;;;2.70;;
72949;SDS011;64868;45.710;9.590;2023-01-13T07:43:20;9.77;;;3.03;;
72949;SDS011;64868;45.710;9.590;2023-01-13T07:45:58;6.78;;;2.70;;
72949;SDS011;64868;45.710;9.590;2023-01-13T07:48:25;7.32;;;2.55;;
72949;SDS011;64868;45.710;9.590;2023-01-13T07:50:51;6.75;;;2.38;;
72949;SDS011;64868;45.710;9.590;2023-01-13T07:53:16;9.43;;;2.53;;
72949;SDS011;64868;45.710;9.590;2023-01-13T07:55:43;5.15;;;1.88;;
72949;SDS011;64868;45.710;9.590;2023-01-13T07:58:09;5.15;;;1.92;;
72949;SDS011;64868;45.710;9.590;2023-01-13T08:00:35;8.13;;;2.13;;
72949;SDS011;64868;45.710;9.590;2023-01-13T08:03:02;5.20;;;1.95;;
72949;SDS011;64868;45.710;9.590;2023-01-13T08:05:27;6.50;;;2.05;;
72949;SDS011;64868;45.710;9.590;2023-01-13T08:07:53;6.40;;;2.05;;
72949;SDS011;64868;45.710;9.590;2023-01-13T08:10:18;8.82;;;1.98;;
72949;SDS011;64868;45.710;9.590;2023-01-13T08:12:44;5.75;;;2.20;;
72949;SDS011;64868;45.710;9.590;2023-01-13T08:15:28;6.32;;;2.03;;
72949;SDS011;64868;45.710;9.590;2023-01-13T08:17:55;4.78;;;1.90;;
72949;SDS011;64868;45.710;9.590;2023-01-13T08:20:20;6.22;;;1.98;;
72949;SDS011;64868;45.710;9.590;2023-01-13T08:22:46;5.95;;;1.70;;
72949;SDS011;64868;45.710;9.590;2023-01-13T08:25:11;5.85;;;2.08;;
72949;SDS011;64868;45.710;9.590;2023-01-13T08:27:37;5.50;;;1.80;;
72949;SDS011;64868;45.710;9.590;2023-01-13T08:30:03;6.45;;;2.10;;
72949;SDS011;64868;45.710;9.590;2023-01-13T08:32:29;6.05;;;1.98;;
72949;SDS011;64868;45.710;9.590;2023-01-13T08:34:55;10.30;;;3.28;;
72949;SDS011;64868;45.710;9.590;2023-01-13T08:37:20;10.25;;;3.55;;
72949;SDS011;64868;45.710;9.590;2023-01-13T08:39:46;9.98;;;2.97;;
72949;SDS011;64868;45.710;9.590;2023-01-13T08:42:11;8.88;;;2.75;;
72949;SDS011;64868;45.710;9.590;2023-01-13T08:44:36;8.75;;;2.35;;
72949;SDS011;64868;45.710;9.590;2023-01-13T08:47:02;8.77;;;1.80;;
72949;SDS011;64868;45.710;9.590;2023-01-13T08:49:28;7.70;;;2.30;;
72949;SDS011;64868;45.710;9.590;2023-01-13T08:51:53;7.85;;;2.58;;
72949;SDS011;64868;45.710;9.590;2023-01-13T08:54:19;8.38;;;2.20;;
72949;SDS011;64868;45.710;9.590;2023-01-13T08:56:44;7.15;;;2.38;;
72949;SDS011;64868;45.710;9.590;2023-01-13T08:59:11;6.82;;;2.47;;
72949;SDS011;64868;45.710;9.590;2023-01-13T09:01:38;7.97;;;2.42;;
72949;SDS011;64868;45.710;9.590;2023-01-13T09:04:05;6.15;;;2.17;;
72949;SDS011;64868;45.710;9.590;2023-01-13T09:06:32;5.55;;;1.65;;
72949;SDS011;64868;45.710;9.590;2023-01-13T09:08:57;7.45;;;2.20;;
72949;SDS011;64868;45.710;9.590;2023-01-13T09:11:25;6.30;;;2.13;;
72949;SDS011;64868;45.710;9.590;2023-01-13T09:14:17;6.95;;;1.80;;
72949;SDS011;64868;45.710;9.590;2023-01-13T09:16:47;5.82;;;2.05;;
72949;SDS011;64868;45.710;9.590;2023-01-13T09:19:12;6.72;;;2.13;;
72949;SDS011;64868;45.710;9.590;2023-01-13T09:21:38;6.13;;;2.08;;
72949;SDS011;64868;45.710;9.590;2023-01-13T09:24:03;6.38;;;2.10;;
72949;SDS011;64868;45.710;9.590;2023-01-13T09:26:29;5.88;;;2.17;;
72949;SDS011;64868;45.710;9.590;2023-01-13T09:28:54;5.82;;;2.30;;
72949;SDS011;64868;45.710;9.590;2023-01-13T09:31:19;5.80;;;1.75;;
72949;SDS011;64868;45.710;9.590;2023-01-13T09:33:45;5.47;;;2.30;;
72949;SDS011;64868;45.710;9.590;2023-01-13T09:36:29;6.05;;;2.10;;
72949;SDS011;64868;45.710;9.590;2023-01-13T09:38:54;6.28;;;2.45;;
72949;SDS011;64868;45.710;9.590;2023-01-13T09:41:21;5.88;;;1.95;;
72949;SDS011;64868;45.710;9.590;2023-01-13T09:44:08;9.00;;;2.63;;
72949;SDS011;64868;45.710;9.590;2023-01-13T09:46:42;8.23;;;2.38;;
72949;SDS011;64868;45.710;9.590;2023-01-13T09:49:20;6.28;;;2.55;;
72949;SDS011;64868;45.710;9.590;2023-01-13T09:51:56;6.47;;;2.47;;
72949;SDS011;64868;45.710;9.590;2023-01-13T09:54:29;8.15;;;2.60;;
72949;SDS011;64868;45.710;9.590;2023-01-13T09:56:59;7.00;;;2.30;;
72949;SDS011;64868;45.710;9.590;2023-01-13T09:59:26;7.25;;;2.40;;
72949;SDS011;64868;45.710;9.590;2023-01-13T10:02:02;8.00;;;2.28;;
72949;SDS011;64868;45.710;9.590;2023-01-13T10:07:38;6.82;;;2.00;;
72949;SDS011;64868;45.710;9.590;2023-01-13T10:10:11;6.15;;;2.20;;
72949;SDS011;64868;45.710;9.590;2023-01-13T10:12:42;5.70;;;1.85;;
72949;SDS011;64868;45.710;9.590;2023-01-13T10:15:28;5.07;;;1.83;;
72949;SDS011;64868;45.710;9.590;2023-01-13T10:17:59;7.57;;;2.50;;
72949;SDS011;64868;45.710;9.590;2023-01-13T10:20:45;5.85;;;2.30;;
72949;SDS011;64868;45.710;9.590;2023-01-13T10:28:52;7.95;;;2.85;;
72949;SDS011;64868;45.710;9.590;2023-01-13T10:31:20;7.32;;;2.78;;
72949;SDS011;64868;45.710;9.590;2023-01-13T10:33:46;8.73;;;2.88;;
72949;SDS011;64868;45.710;9.590;2023-01-13T10:36:14;9.98;;;3.05;;
72949;SDS011;64868;45.710;9.590;2023-01-13T10:38:43;8.20;;;3.33;;
72949;SDS011;64868;45.710;9.590;2023-01-13T10:43:44;9.18;;;3.70;;
72949;SDS011;64868;45.710;9.590;2023-01-13T10:46:22;11.43;;;3.95;;
72949;SDS011;64868;45.710;9.590;2023-01-13T10:48:55;8.13;;;3.17;;
72949;SDS011;64868;45.710;9.590;2023-01-13T10:54:15;10.52;;;3.92;;
72949;SDS011;64868;45.710;9.590;2023-01-13T10:56:44;11.20;;;4.50;;
72949;SDS011;64868;45.710;9.590;2023-01-13T11:04:34;16.75;;;6.68;;
72949;SDS011;64868;45.710;9.590;2023-01-13T11:07:02;13.18;;;6.25;;
72949;SDS011;64868;45.710;9.590;2023-01-13T11:09:30;12.80;;;6.43;;
72949;SDS011;64868;45.710;9.590;2023-01-13T11:11:56;17.05;;;6.80;;
72949;SDS011;64868;45.710;9.590;2023-01-13T11:14:28;11.35;;;6.18;;
72949;SDS011;64868;45.710;9.590;2023-01-13T11:17:08;11.88;;;5.97;;
72949;SDS011;64868;45.710;9.590;2023-01-13T11:19:39;12.88;;;7.03;;
72949;SDS011;64868;45.710;9.590;2023-01-13T11:22:09;13.02;;;6.47;;
72949;SDS011;64868;45.710;9.590;2023-01-13T11:27:13;14.43;;;7.40;;
72949;SDS011;64868;45.710;9.590;2023-01-13T11:32:13;17.02;;;7.25;;
72949;SDS011;64868;45.710;9.590;2023-01-13T11:34:44;14.82;;;7.82;;
72949;SDS011;64868;45.710;9.590;2023-01-13T11:37:26;14.18;;;6.80;;
72949;SDS011;64868;45.710;9.590;2023-01-13T11:40:03;15.23;;;8.48;;
72949;SDS011;64868;45.710;9.590;2023-01-13T11:45:20;18.23;;;8.82;;
72949;SDS011;64868;45.710;9.590;2023-01-13T11:47:51;13.43;;;8.32;;
72949;SDS011;64868;45.710;9.590;2023-01-13T11:50:27;14.25;;;8.90;;
72949;SDS011;64868;45.710;9.590;2023-01-13T12:06:10;17.90;;;10.35;;
72949;SDS011;64868;45.710;9.590;2023-01-13T12:11:25;18.85;;;9.95;;
72949;SDS011;64868;45.710;9.590;2023-01-13T12:14:18;18.48;;;9.52;;
72949;SDS011;64868;45.710;9.590;2023-01-13T12:16:55;18.38;;;9.93;;
72949;SDS011;64868;45.710;9.590;2023-01-13T12:19:26;20.25;;;10.32;;
72949;SDS011;64868;45.710;9.590;2023-01-13T12:27:45;17.10;;;9.05;;
72949;SDS011;64868;45.710;9.590;2023-01-13T12:33:08;18.05;;;10.00;;
72949;SDS011;64868;45.710;9.590;2023-01-13T12:36:08;21.65;;;11.27;;
72949;SDS011;64868;45.710;9.590;2023-01-13T12:38:48;16.25;;;9.45;;
72949;SDS011;64868;45.710;9.590;2023-01-13T12:43:48;20.10;;;10.18;;
72949;SDS011;64868;45.710;9.590;2023-01-13T12:46:52;19.58;;;11.00;;
72949;SDS011;64868;45.710;9.590;2023-01-13T12:54:31;18.83;;;9.98;;
72949;SDS011;64868;45.710;9.590;2023-01-13T12:57:26;19.65;;;10.73;;
72949;SDS011;64868;45.710;9.590;2023-01-13T13:02:32;18.33;;;9.90;;
72949;SDS011;64868;45.710;9.590;2023-01-13T13:07:48;18.40;;;9.25;;
72949;SDS011;64868;45.710;9.590;2023-01-13T13:15:27;17.58;;;9.68;;
72949;SDS011;64868;45.710;9.590;2023-01-13T13:18:03;19.08;;;10.57;;
72949;SDS011;64868;45.710;9.590;2023-01-13T13:26:04;19.40;;;11.02;;
72949;SDS011;64868;45.710;9.590;2023-01-13T13:28:37;22.52;;;11.88;;
72949;SDS011;64868;45.710;9.590;2023-01-13T13:31:35;21.65;;;11.35;;
72949;SDS011;64868;45.710;9.590;2023-01-13T13:34:13;23.08;;;12.75;;
72949;SDS011;64868;45.710;9.590;2023-01-13T13:39:50;24.17;;;13.00;;
72949;SDS011;64868;45.710;9.590;2023-01-13T13:42:39;22.92;;;13.80;;
72949;SDS011;64868;45.710;9.590;2023-01-13T13:45:27;26.17;;;13.70;;
72949;SDS011;64868;45.710;9.590;2023-01-13T13:53:25;26.42;;;14.52;;
72949;SDS011;64868;45.710;9.590;2023-01-13T13:55:59;25.23;;;15.20;;
72949;SDS011;64868;45.710;9.590;2023-01-13T13:58:27;28.50;;;15.57;;
72949;SDS011;64868;45.710;9.590;2023-01-13T14:00:55;26.58;;;15.27;;
72949;SDS011;64868;45.710;9.590;2023-01-13T14:03:22;25.13;;;15.30;;
72949;SDS011;64868;45.710;9.590;2023-01-13T14:05:52;25.67;;;14.43;;
72949;SDS011;64868;45.710;9.590;2023-01-13T14:10:46;26.27;;;14.20;;
72949;SDS011;64868;45.710;9.590;2023-01-13T14:13:24;27.27;;;15.05;;
72949;SDS011;64868;45.710;9.590;2023-01-13T14:16:03;26.67;;;14.85;;
72949;SDS011;64868;45.710;9.590;2023-01-13T14:18:31;29.17;;;15.95;;
72949;SDS011;64868;45.710;9.590;2023-01-13T14:26:24;28.40;;;16.58;;
72949;SDS011;64868;45.710;9.590;2023-01-13T14:28:53;31.98;;;16.90;;
72949;SDS011;64868;45.710;9.590;2023-01-13T14:31:20;30.52;;;17.48;;
72949;SDS011;64868;45.710;9.590;2023-01-13T14:33:48;29.60;;;15.75;;
72949;SDS011;64868;45.710;9.590;2023-01-13T14:36:23;31.35;;;16.23;;
72949;SDS011;64868;45.710;9.590;2023-01-13T14:41:28;31.20;;;17.25;;
72949;SDS011;64868;45.710;9.590;2023-01-13T14:44:07;31.60;;;17.65;;
72949;SDS011;64868;45.710;9.590;2023-01-13T14:46:45;33.28;;;17.30;;
72949;SDS011;64868;45.710;9.590;2023-01-13T14:52:16;30.83;;;18.65;;
72949;SDS011;64868;45.710;9.590;2023-01-13T14:54:46;33.10;;;20.55;;
72949;SDS011;64868;45.710;9.590;2023-01-13T14:59:54;37.83;;;21.48;;
72949;SDS011;64868;45.710;9.590;2023-01-13T15:24:36;34.00;;;20.95;;
72949;SDS011;64868;45.710;9.590;2023-01-13T15:27:03;38.05;;;23.15;;
72949;SDS011;64868;45.710;9.590;2023-01-13T15:29:37;40.15;;;23.42;;
72949;SDS011;64868;45.710;9.590;2023-01-13T15:59:42;41.10;;;22.40;;
72949;SDS011;64868;45.710;9.590;2023-01-13T16:02:11;38.20;;;21.85;;
72949;SDS011;64868;45.710;9.590;2023-01-13T16:04:42;37.50;;;20.67;;
72949;SDS011;64868;45.710;9.590;2023-01-13T16:07:13;35.58;;;22.17;;
72949;SDS011;64868;45.710;9.590;2023-01-13T16:09:42;37.05;;;22.33;;
72949;SDS011;64868;45.710;9.590;2023-01-13T16:12:09;41.15;;;25.10;;
72949;SDS011;64868;45.710;9.590;2023-01-13T16:14:35;37.92;;;23.75;;
72949;SDS011;64868;45.710;9.590;2023-01-13T16:17:02;54.42;;;31.95;;
72949;SDS011;64868;45.710;9.590;2023-01-13T16:19:38;70.53;;;34.47;;
72949;SDS011;64868;45.710;9.590;2023-01-13T16:24:53;44.53;;;26.85;;
72949;SDS011;64868;45.710;9.590;2023-01-13T16:27:20;41.67;;;24.23;;
72949;SDS011;64868;45.710;9.590;2023-01-13T16:29:48;46.83;;;25.88;;
72949;SDS011;64868;45.710;9.590;2023-01-13T16:35:37;58.92;;;34.67;;
72949;SDS011;64868;45.710;9.590;2023-01-13T16:38:02;55.53;;;28.88;;
72949;SDS011;64868;45.710;9.590;2023-01-13T16:40:29;54.83;;;29.73;;
72949;SDS011;64868;45.710;9.590;2023-01-13T16:43:00;44.88;;;27.15;;
72949;SDS011;64868;45.710;9.590;2023-01-13T16:45:28;56.42;;;31.23;;
72949;SDS011;64868;45.710;9.590;2023-01-13T16:47:54;55.58;;;31.92;;
72949;SDS011;64868;45.710;9.590;2023-01-13T16:50:23;50.58;;;29.38;;
72949;SDS011;64868;45.710;9.590;2023-01-13T16:52:57;43.17;;;26.83;;
72949;SDS011;64868;45.710;9.590;2023-01-13T16:55:23;40.05;;;25.27;;
72949;SDS011;64868;45.710;9.590;2023-01-13T16:57:49;35.95;;;20.65;;
72949;SDS011;64868;45.710;9.590;2023-01-13T17:00:18;37.80;;;23.00;;
72949;SDS011;64868;45.710;9.590;2023-01-13T17:02:45;44.67;;;25.77;;
72949;SDS011;64868;45.710;9.590;2023-01-13T17:05:13;38.25;;;22.30;;
72949;SDS011;64868;45.710;9.590;2023-01-13T17:07:43;42.92;;;23.80;;
72949;SDS011;64868;45.710;9.590;2023-01-13T17:10:12;43.67;;;24.85;;
72949;SDS011;64868;45.710;9.590;2023-01-13T17:12:43;43.75;;;25.20;;
72949;SDS011;64868;45.710;9.590;2023-01-13T17:15:10;42.30;;;24.27;;
72949;SDS011;64868;45.710;9.590;2023-01-13T17:17:37;50.88;;;27.63;;
72949;SDS011;64868;45.710;9.590;2023-01-13T17:20:05;52.13;;;27.00;;
72949;SDS011;64868;45.710;9.590;2023-01-13T17:36:36;44.22;;;25.58;;
72949;SDS011;64868;45.710;9.590;2023-01-13T17:39:03;42.30;;;24.52;;
72949;SDS011;64868;45.710;9.590;2023-01-13T17:41:28;48.78;;;24.98;;
72949;SDS011;64868;45.710;9.590;2023-01-13T17:43:54;42.03;;;25.55;;
72949;SDS011;64868;45.710;9.590;2023-01-13T17:46:19;40.05;;;23.58;;
72949;SDS011;64868;45.710;9.590;2023-01-13T17:48:47;37.58;;;21.88;;
72949;SDS011;64868;45.710;9.590;2023-01-13T17:51:14;47.63;;;24.80;;
72949;SDS011;64868;45.710;9.590;2023-01-13T17:53:42;42.15;;;23.70;;
72949;SDS011;64868;45.710;9.590;2023-01-13T17:56:13;43.63;;;24.73;;
72949;SDS011;64868;45.710;9.590;2023-01-13T17:58:42;39.42;;;22.40;;
72949;SDS011;64868;45.710;9.590;2023-01-13T18:01:12;46.45;;;25.80;;
72949;SDS011;64868;45.710;9.590;2023-01-13T18:03:39;40.53;;;23.20;;
72949;SDS011;64868;45.710;9.590;2023-01-13T18:06:06;41.63;;;24.88;;
72949;SDS011;64868;45.710;9.590;2023-01-13T18:08:35;41.88;;;24.15;;
72949;SDS011;64868;45.710;9.590;2023-01-13T18:11:01;45.80;;;25.25;;
72949;SDS011;64868;45.710;9.590;2023-01-13T18:13:27;40.83;;;24.10;;
72949;SDS011;64868;45.710;9.590;2023-01-13T18:15:58;46.03;;;26.08;;
72949;SDS011;64868;45.710;9.590;2023-01-13T18:18:32;54.47;;;28.40;;
72949;SDS011;64868;45.710;9.590;2023-01-13T18:20:58;43.42;;;25.20;;
72949;SDS011;64868;45.710;9.590;2023-01-13T18:23:43;47.78;;;27.92;;
72949;SDS011;64868;45.710;9.590;2023-01-13T18:26:30;45.35;;;24.83;;
72949;SDS011;64868;45.710;9.590;2023-01-13T18:29:15;44.42;;;25.02;;